地図

経路データ

SID SEASON NUMBER BASIN SUBBASIN NAME ISO_TIME NATURE LAT LON WMO_WIND WMO_PRES WMO_AGENCY TRACK_TYPE DIST2LAND LANDFALL IFLAG USA_AGENCY USA_ATCF_ID USA_LAT USA_LON USA_RECORD USA_STATUS USA_WIND USA_PRES USA_SSHS USA_R34_NE USA_R34_SE USA_R34_SW USA_R34_NW USA_R50_NE USA_R50_SE USA_R50_SW USA_R50_NW USA_R64_NE USA_R64_SE USA_R64_SW USA_R64_NW USA_POCI USA_ROCI USA_RMW USA_EYE TOKYO_LAT TOKYO_LON TOKYO_GRADE TOKYO_WIND TOKYO_PRES TOKYO_R50_DIR TOKYO_R50_LONG TOKYO_R50_SHORT TOKYO_R30_DIR TOKYO_R30_LONG TOKYO_R30_SHORT TOKYO_LAND CMA_LAT CMA_LON CMA_CAT CMA_WIND CMA_PRES HKO_LAT HKO_LON HKO_CAT HKO_WIND HKO_PRES NEWDELHI_LAT NEWDELHI_LON NEWDELHI_GRADE NEWDELHI_WIND NEWDELHI_PRES NEWDELHI_CI NEWDELHI_DP NEWDELHI_POCI REUNION_LAT REUNION_LON REUNION_TYPE REUNION_WIND REUNION_PRES REUNION_TNUM REUNION_CI REUNION_RMW REUNION_R34_NE REUNION_R34_SE REUNION_R34_SW REUNION_R34_NW REUNION_R50_NE REUNION_R50_SE REUNION_R50_SW REUNION_R50_NW REUNION_R64_NE REUNION_R64_SE REUNION_R64_SW REUNION_R64_NW BOM_LAT BOM_LON BOM_TYPE BOM_WIND BOM_PRES BOM_TNUM BOM_CI BOM_RMW BOM_R34_NE BOM_R34_SE BOM_R34_SW BOM_R34_NW BOM_R50_NE BOM_R50_SE BOM_R50_SW BOM_R50_NW BOM_R64_NE BOM_R64_SE BOM_R64_SW BOM_R64_NW BOM_ROCI BOM_POCI BOM_EYE BOM_POS_METHOD BOM_PRES_METHOD NADI_LAT NADI_LON NADI_CAT NADI_WIND NADI_PRES WELLINGTON_LAT WELLINGTON_LON WELLINGTON_WIND WELLINGTON_PRES DS824_LAT DS824_LON DS824_STAGE DS824_WIND DS824_PRES TD9636_LAT TD9636_LON TD9636_STAGE TD9636_WIND TD9636_PRES TD9635_LAT TD9635_LON TD9635_WIND TD9635_PRES TD9635_ROCI NEUMANN_LAT NEUMANN_LON NEUMANN_CLASS NEUMANN_WIND NEUMANN_PRES MLC_LAT MLC_LON MLC_CLASS MLC_WIND MLC_PRES USA_GUST BOM_GUST BOM_GUST_PER REUNION_GUST REUNION_GUST_PER USA_SEAHGT USA_SEARAD_NE USA_SEARAD_SE USA_SEARAD_SW USA_SEARAD_NW STORM_SPEED STORM_DIR
1894046S16064 1894 9 SI MM NOT_NAMED 1894-02-14 18:00:00 NR -15.5000 64.0000 main 842 794 __________O___ -1 -15.5000 64.0000 7 9 240
1894046S16064 1894 9 SI MM NOT_NAMED 1894-02-14 21:00:00 NR -15.7179 63.6024 main 794 747 __________P___ -1 -15.7179 63.6024 7 9 240
1894046S16064 1894 9 SI MM NOT_NAMED 1894-02-15 00:00:00 NR -15.9284 63.2234 main 747 708 __________P___ -1 -15.9284 63.2234 7 8 240
1894046S16064 1894 9 SI MM NOT_NAMED 1894-02-15 03:00:00 NR -16.1246 62.8827 main 708 669 __________P___ -1 -16.1246 62.8827 7 7 238
1894046S16064 1894 9 SI MM NOT_NAMED 1894-02-15 06:00:00 NR -16.3000 62.6000 main 669 646 __________O___ -1 -16.3000 62.6000 7 6 236
1894046S16064 1894 9 SI MM NOT_NAMED 1894-02-15 09:00:00 NR -16.4503 62.3881 main 639 615 __________P___ -1 -16.4503 62.3881 7 5 232
1894046S16064 1894 9 SI MM NOT_NAMED 1894-02-15 12:00:00 NR -16.5796 62.2321 main 615 600 __________P___ -1 -16.5796 62.2321 7 4 227
1894046S16064 1894 9 SI MM NOT_NAMED 1894-02-15 15:00:00 NR -16.6941 62.1101 main 600 584 __________P___ -1 -16.6941 62.1101 7 3 225
1894046S16064 1894 9 SI MM NOT_NAMED 1894-02-15 18:00:00 NR -16.8000 62.0000 main 584 569 __________O___ -1 -16.8000 62.0000 7 3 228
1894046S16064 1894 9 SI MM NOT_NAMED 1894-02-15 21:00:00 NR -16.8990 61.8758 main 569 554 __________P___ -1 -16.8990 61.8758 7 3 230
1894046S16064 1894 9 SI MM NOT_NAMED 1894-02-16 00:00:00 NR -16.9924 61.7573 main 554 530 __________P___ -1 -16.9924 61.7573 7 3 230
1894046S16064 1894 9 SI MM NOT_NAMED 1894-02-16 03:00:00 NR -17.0896 61.6351 main 530 515 __________P___ -1 -17.0896 61.6351 7 3 230
1894046S16064 1894 9 SI MM NOT_NAMED 1894-02-16 06:00:00 NR -17.2000 61.5000 main 515 491 __________O___ -1 -17.2000 61.5000 7 4 229
1894046S16064 1894 9 SI MM NOT_NAMED 1894-02-16 09:00:00 NR -17.3397 61.3354 main 491 469 __________P___ -1 -17.3397 61.3354 7 4 228
1894046S16064 1894 9 SI MM NOT_NAMED 1894-02-16 12:00:00 NR -17.4925 61.1576 main 469 445 __________P___ -1 -17.4925 61.1576 7 5 228
1894046S16064 1894 9 SI MM NOT_NAMED 1894-02-16 15:00:00 NR -17.6491 60.9760 main 445 415 __________P___ -1 -17.6491 60.9760 7 5 228
1894046S16064 1894 9 SI MM NOT_NAMED 1894-02-16 18:00:00 NR -17.8000 60.8000 main 415 400 __________O___ -1 -17.8000 60.8000 7 4 229
1894046S16064 1894 9 SI MM NOT_NAMED 1894-02-16 21:00:00 NR -17.9199 60.6547 main 400 376 __________P___ -1 -17.9199 60.6547 7 4 229
1894046S16064 1894 9 SI MM NOT_NAMED 1894-02-17 00:00:00 NR -18.0348 60.5146 main 376 361 __________P___ -1 -18.0348 60.5146 7 4 229
1894046S16064 1894 9 SI MM NOT_NAMED 1894-02-17 03:00:00 NR -18.1573 60.3672 main 354 330 __________P___ -1 -18.1573 60.3672 7 4 228
1894046S16064 1894 9 SI MM NOT_NAMED 1894-02-17 06:00:00 NR -18.3000 60.2000 main 330 300 __________O___ -1 -18.3000 60.2000 7 5 228
1894046S16064 1894 9 SI MM NOT_NAMED 1894-02-17 09:00:00 NR -18.4785 59.9886 main 300 270 __________P___ -1 -18.4785 59.9886 7 6 228
1894046S16064 1894 9 SI MM NOT_NAMED 1894-02-17 12:00:00 NR -18.6776 59.7577 main 270 231 __________P___ -1 -18.6776 59.7577 7 6 227
1894046S16064 1894 9 SI MM NOT_NAMED 1894-02-17 15:00:00 NR -18.8879 59.5229 main 231 201 __________P___ -1 -18.8879 59.5229 7 6 226
1894046S16064 1894 9 SI MM NOT_NAMED 1894-02-17 18:00:00 NR -19.1000 59.3000 main 201 171 __________O___ -1 -19.1000 59.3000 7 6 224
1894046S16064 1894 9 SI MM NOT_NAMED 1894-02-17 21:00:00 NR -19.3065 59.1009 main 171 142 __________P___ -1 -19.3065 59.1009 7 5 221
1894046S16064 1894 9 SI MM NOT_NAMED 1894-02-18 00:00:00 NR -19.5075 58.9226 main 142 123 __________P___ -1 -19.5075 58.9226 7 5 219
1894046S16064 1894 9 SI MM NOT_NAMED 1894-02-18 03:00:00 NR -19.7047 58.7580 main 123 94 __________P___ -1 -19.7047 58.7580 7 5 218
1894046S16064 1894 9 SI MM NOT_NAMED 1894-02-18 06:00:00 NR -19.9000 58.6000 main 94 __________O___ -1 -19.9000 58.6000 7 5 217

IBTrACS Databaseについて

本データベースは、米国NOAAが公開する1842年以降の世界の熱帯低気圧のベストトラックデータアーカイブInternational Best Track Archive for Climate Stewardship (IBTrACS)を、ウェブで閲覧しやすい形式に変換したものです。

最終更新日:2021-10-08